createdAt,value
2019-01-18T00:00:09.904Z,0
2019-01-18T00:00:50.491Z,0
2019-01-18T00:01:31.048Z,0
2019-01-18T00:02:11.600Z,0
2019-01-18T00:02:52.163Z,0
2019-01-18T00:03:32.725Z,0
2019-01-18T00:04:13.325Z,0
2019-01-18T00:04:53.899Z,0
2019-01-18T00:05:34.497Z,0
2019-01-18T00:06:15.080Z,0
2019-01-18T00:06:55.673Z,0
2019-01-18T00:07:36.240Z,0
2019-01-18T00:08:16.802Z,0
2019-01-18T00:08:57.386Z,0
2019-01-18T00:09:37.973Z,0
2019-01-18T00:10:18.536Z,0
2019-01-18T00:10:59.105Z,0
2019-01-18T00:11:39.673Z,0
2019-01-18T00:12:20.235Z,0
2019-01-18T00:13:00.825Z,0
2019-01-18T00:13:41.378Z,0
2019-01-18T00:14:21.946Z,0
2019-01-18T00:15:02.508Z,0
2019-01-18T00:15:43.086Z,0
2019-01-18T00:16:23.654Z,0
2019-01-18T00:17:04.218Z,0
2019-01-18T00:17:44.858Z,0
2019-01-18T00:18:25.423Z,0
2019-01-18T00:19:06.011Z,0
2019-01-18T00:19:46.635Z,0
2019-01-18T00:20:27.183Z,0
2019-01-18T00:21:07.751Z,0
2019-01-18T00:21:48.312Z,0
2019-01-18T00:22:28.861Z,0
2019-01-18T00:23:09.416Z,0
2019-01-18T00:23:50.008Z,0
2019-01-18T00:24:30.583Z,0
2019-01-18T00:25:11.144Z,0
2019-01-18T00:25:51.726Z,0
2019-01-18T00:26:32.333Z,0
2019-01-18T00:27:12.905Z,0
2019-01-18T00:27:53.458Z,0
2019-01-18T00:28:34.029Z,0
2019-01-18T00:29:14.643Z,0
2019-01-18T00:29:55.258Z,0
2019-01-18T00:30:35.828Z,0
2019-01-18T00:31:16.442Z,0
2019-01-18T00:31:57.068Z,0
2019-01-18T00:32:37.639Z,0
2019-01-18T00:33:18.215Z,0
2019-01-18T00:33:58.764Z,0
2019-01-18T00:34:39.318Z,0
2019-01-18T00:35:19.890Z,0
2019-01-18T00:36:00.476Z,0
2019-01-18T00:36:41.037Z,0
2019-01-18T00:37:21.603Z,0
2019-01-18T00:38:02.222Z,0
2019-01-18T00:38:42.786Z,0
2019-01-18T00:39:23.346Z,0
2019-01-18T00:40:03.900Z,0
2019-01-18T00:40:44.497Z,0
2019-01-18T00:41:25.099Z,0
2019-01-18T00:42:05.674Z,0
2019-01-18T00:42:46.231Z,0
2019-01-18T00:43:26.792Z,0
2019-01-18T00:44:07.382Z,0
2019-01-18T00:44:47.958Z,0
2019-01-18T00:45:28.576Z,0
2019-01-18T00:46:09.130Z,0
2019-01-18T00:46:49.705Z,0
2019-01-18T00:47:30.337Z,0
2019-01-18T00:48:10.984Z,0
2019-01-18T00:48:51.549Z,0
2019-01-18T00:49:32.122Z,0
2019-01-18T00:50:12.721Z,0
2019-01-18T00:50:53.290Z,0
2019-01-18T00:51:33.864Z,0
2019-01-18T00:52:14.431Z,0
2019-01-18T00:52:54.997Z,0
2019-01-18T00:53:35.575Z,0
2019-01-18T00:54:16.171Z,0
2019-01-18T00:54:56.745Z,0
2019-01-18T00:55:37.323Z,0
2019-01-18T00:56:17.900Z,0
2019-01-18T00:56:58.482Z,0
2019-01-18T00:57:39.021Z,0
2019-01-18T00:58:19.581Z,0
2019-01-18T00:59:00.145Z,0
2019-01-18T00:59:40.699Z,0
2019-01-18T01:00:21.299Z,0
2019-01-18T01:01:01.895Z,0
2019-01-18T01:01:42.479Z,0
2019-01-18T01:02:23.042Z,0
2019-01-18T01:03:03.602Z,0
2019-01-18T01:03:44.184Z,0
2019-01-18T01:04:24.737Z,0
2019-01-18T01:05:05.293Z,0
2019-01-18T01:05:45.873Z,0
2019-01-18T01:06:26.471Z,0
2019-01-18T01:07:07.041Z,0
2019-01-18T01:07:47.616Z,0
2019-01-18T01:08:28.206Z,0
2019-01-18T01:09:08.781Z,0
2019-01-18T01:09:49.344Z,0
2019-01-18T01:10:29.909Z,0
2019-01-18T01:11:10.508Z,0
2019-01-18T01:11:51.083Z,0
2019-01-18T01:12:31.643Z,0
2019-01-18T01:13:12.208Z,0
2019-01-18T01:13:52.791Z,0
2019-01-18T01:14:33.336Z,0
2019-01-18T01:15:13.909Z,0
2019-01-18T01:15:54.481Z,0
2019-01-18T01:16:35.049Z,0
2019-01-18T01:17:15.601Z,0
2019-01-18T01:17:56.162Z,0
2019-01-18T01:18:36.769Z,0
2019-01-18T01:19:17.335Z,0
2019-01-18T01:19:57.909Z,0
2019-01-18T01:20:38.470Z,0
2019-01-18T01:21:19.051Z,0
2019-01-18T01:21:59.624Z,0
2019-01-18T01:22:40.203Z,0
2019-01-18T01:23:20.778Z,0
2019-01-18T01:24:01.339Z,0
2019-01-18T01:24:41.907Z,0
2019-01-18T01:25:22.481Z,0
2019-01-18T01:26:03.048Z,0
2019-01-18T01:26:43.645Z,0
2019-01-18T01:27:24.228Z,0
2019-01-18T01:28:04.813Z,0
2019-01-18T01:28:45.395Z,0
2019-01-18T01:29:25.941Z,0
2019-01-18T01:30:06.495Z,0
2019-01-18T01:30:47.098Z,0
2019-01-18T01:31:27.656Z,0
2019-01-18T01:32:08.241Z,0
2019-01-18T01:32:48.827Z,0
2019-01-18T01:33:29.383Z,0
2019-01-18T01:34:09.942Z,0
2019-01-18T01:34:50.539Z,0
2019-01-18T01:35:31.090Z,0
2019-01-18T01:36:11.635Z,0
2019-01-18T01:36:52.186Z,0
2019-01-18T01:37:32.745Z,0
2019-01-18T01:38:13.375Z,0
2019-01-18T01:38:53.958Z,0
2019-01-18T01:39:34.539Z,0
2019-01-18T01:40:15.099Z,0
2019-01-18T01:40:55.648Z,0
2019-01-18T01:41:36.453Z,0
2019-01-18T01:42:17.018Z,0
2019-01-18T01:42:57.577Z,0
2019-01-18T01:43:38.165Z,0
2019-01-18T01:44:18.732Z,0
2019-01-18T01:44:59.298Z,0
2019-01-18T01:45:39.862Z,0
2019-01-18T01:46:20.416Z,0
2019-01-18T01:47:00.977Z,0
2019-01-18T01:47:41.540Z,0
2019-01-18T01:48:22.103Z,0
2019-01-18T01:49:02.672Z,0
2019-01-18T01:49:43.222Z,0
2019-01-18T01:50:23.806Z,0
2019-01-18T01:51:04.380Z,0
2019-01-18T01:51:44.992Z,0
2019-01-18T01:52:25.509Z,0
2019-01-18T01:53:06.060Z,0
2019-01-18T01:53:46.623Z,0
2019-01-18T01:54:27.193Z,0
2019-01-18T01:55:07.757Z,0
2019-01-18T01:55:48.314Z,0
2019-01-18T01:56:28.872Z,0
2019-01-18T01:57:09.428Z,0
2019-01-18T01:57:49.991Z,0
2019-01-18T01:58:30.582Z,0
2019-01-18T01:59:11.149Z,0
2019-01-18T01:59:51.717Z,0
2019-01-18T02:00:32.280Z,0
2019-01-18T02:01:12.852Z,0
2019-01-18T02:01:53.408Z,0
2019-01-18T02:02:33.968Z,0
2019-01-18T02:03:14.542Z,0
2019-01-18T02:03:55.094Z,0
2019-01-18T02:04:35.661Z,0
2019-01-18T02:05:16.213Z,0
2019-01-18T02:05:56.815Z,0
2019-01-18T02:06:37.389Z,0
2019-01-18T02:07:17.957Z,0
2019-01-18T02:07:58.532Z,0
2019-01-18T02:08:39.091Z,0
2019-01-18T02:09:19.648Z,0
2019-01-18T02:10:00.233Z,0
2019-01-18T02:10:40.811Z,0
2019-01-18T02:11:21.351Z,0
2019-01-18T02:12:01.939Z,0
2019-01-18T02:12:42.495Z,0
2019-01-18T02:13:23.044Z,0
2019-01-18T02:14:03.647Z,0
2019-01-18T02:14:44.202Z,0
2019-01-18T02:15:24.767Z,0
2019-01-18T02:16:05.413Z,0
2019-01-18T02:16:45.986Z,0
2019-01-18T02:17:26.557Z,0
2019-01-18T02:18:07.119Z,0
2019-01-18T02:18:47.678Z,0
2019-01-18T02:19:28.254Z,0
2019-01-18T02:20:08.828Z,0
2019-01-18T02:20:49.391Z,0
2019-01-18T02:21:29.965Z,0
2019-01-18T02:22:10.581Z,0
2019-01-18T02:22:51.143Z,0
2019-01-18T02:23:31.710Z,0
2019-01-18T02:24:12.300Z,0
2019-01-18T02:24:52.871Z,0
2019-01-18T02:25:33.423Z,0
2019-01-18T02:26:14.004Z,0
2019-01-18T02:26:54.566Z,0
2019-01-18T02:27:35.167Z,0
2019-01-18T02:28:15.721Z,0
2019-01-18T02:28:56.300Z,0
2019-01-18T02:29:36.853Z,0
2019-01-18T02:30:17.478Z,0
2019-01-18T02:30:57.983Z,0
2019-01-18T02:31:38.550Z,0
2019-01-18T02:32:19.088Z,0
2019-01-18T02:32:59.644Z,0
2019-01-18T02:33:40.190Z,0
2019-01-18T02:34:20.756Z,0
2019-01-18T02:35:01.297Z,0
2019-01-18T02:35:41.886Z,0
2019-01-18T02:36:22.455Z,0
2019-01-18T02:37:03.043Z,0
2019-01-18T02:37:43.606Z,0
2019-01-18T02:38:24.198Z,0
2019-01-18T02:39:04.775Z,0
2019-01-18T02:39:45.374Z,0
2019-01-18T02:40:26.078Z,0
2019-01-18T02:41:06.668Z,0
2019-01-18T02:41:47.261Z,0
2019-01-18T02:42:27.860Z,0
2019-01-18T02:43:08.520Z,0
2019-01-18T02:43:49.076Z,0
2019-01-18T02:44:29.657Z,0
2019-01-18T02:45:10.234Z,0
2019-01-18T02:45:50.808Z,0
2019-01-18T02:46:31.376Z,0
2019-01-18T02:47:11.924Z,0
2019-01-18T02:47:52.466Z,0
2019-01-18T02:48:33.090Z,0
2019-01-18T02:49:13.636Z,0
2019-01-18T02:49:54.264Z,0
2019-01-18T02:50:34.821Z,0
2019-01-18T02:51:15.397Z,0
2019-01-18T02:51:55.964Z,0
2019-01-18T02:52:36.563Z,0
2019-01-18T02:53:17.105Z,0
2019-01-18T02:53:57.680Z,0
2019-01-18T02:54:38.222Z,0
2019-01-18T02:55:18.810Z,0
2019-01-18T02:55:59.372Z,0
2019-01-18T02:56:39.912Z,0
2019-01-18T02:57:20.472Z,0
2019-01-18T02:58:01.050Z,0
2019-01-18T02:58:41.611Z,0
2019-01-18T02:59:22.171Z,0
2019-01-18T03:00:04.845Z,0
2019-01-18T03:00:43.287Z,0
2019-01-18T03:01:23.894Z,0
2019-01-18T03:02:04.467Z,0
2019-01-18T03:02:44.987Z,0
2019-01-18T03:03:25.645Z,0
2019-01-18T03:04:06.195Z,0
2019-01-18T03:04:46.746Z,0
2019-01-18T03:05:27.287Z,0
2019-01-18T03:06:07.846Z,0
2019-01-18T03:06:48.411Z,0
2019-01-18T03:07:28.951Z,0
2019-01-18T03:08:09.523Z,0
2019-01-18T03:08:50.085Z,0
2019-01-18T03:09:30.643Z,0
2019-01-18T03:10:11.254Z,0
2019-01-18T03:10:51.822Z,0
2019-01-18T03:11:32.391Z,0
2019-01-18T03:12:12.971Z,0
2019-01-18T03:12:53.567Z,0
2019-01-18T03:13:34.088Z,0
2019-01-18T03:14:14.660Z,0
2019-01-18T03:14:55.208Z,0
2019-01-18T03:15:35.805Z,0
2019-01-18T03:16:16.381Z,0
2019-01-18T03:16:56.962Z,0
2019-01-18T03:17:37.517Z,0
2019-01-18T03:18:18.086Z,0
2019-01-18T03:18:58.656Z,0
2019-01-18T03:19:39.213Z,0
2019-01-18T03:20:19.765Z,0
2019-01-18T03:21:00.364Z,0
2019-01-18T03:21:40.921Z,0
2019-01-18T03:22:21.475Z,0
2019-01-18T03:23:02.020Z,0
2019-01-18T03:23:42.579Z,0
2019-01-18T03:24:23.314Z,0
2019-01-18T03:25:03.882Z,0
2019-01-18T03:25:44.465Z,0
2019-01-18T03:26:25.022Z,0
2019-01-18T03:27:05.569Z,0
2019-01-18T03:27:46.133Z,0
2019-01-18T03:28:26.685Z,0
2019-01-18T03:29:07.252Z,0
2019-01-18T03:29:47.808Z,0
2019-01-18T03:30:28.380Z,0
2019-01-18T03:31:08.943Z,0
2019-01-18T03:31:49.505Z,0
2019-01-18T03:32:30.077Z,0
2019-01-18T03:33:10.610Z,0
2019-01-18T03:33:51.281Z,0
2019-01-18T03:34:31.939Z,0
2019-01-18T03:35:12.496Z,0
2019-01-18T03:35:53.079Z,0
2019-01-18T03:36:33.597Z,0
2019-01-18T03:37:14.152Z,0
2019-01-18T03:37:54.718Z,0
2019-01-18T03:38:35.309Z,0
2019-01-18T03:39:15.853Z,0
2019-01-18T03:39:56.432Z,0
2019-01-18T03:40:36.993Z,0
2019-01-18T03:41:17.803Z,0
2019-01-18T03:41:58.352Z,0
2019-01-18T03:42:38.920Z,0
2019-01-18T03:43:19.507Z,0
2019-01-18T03:44:00.044Z,0
2019-01-18T03:44:40.611Z,0
2019-01-18T03:45:21.213Z,0
2019-01-18T03:46:01.731Z,0
2019-01-18T03:46:42.331Z,0
2019-01-18T03:47:22.891Z,0
2019-01-18T03:48:03.472Z,0
2019-01-18T03:48:44.123Z,0
2019-01-18T03:49:24.744Z,0
2019-01-18T03:50:05.384Z,0
2019-01-18T03:50:45.932Z,0
2019-01-18T03:51:26.480Z,0
2019-01-18T03:52:07.034Z,0
2019-01-18T03:52:47.594Z,0
2019-01-18T03:53:28.129Z,0
2019-01-18T03:54:08.694Z,0
2019-01-18T03:54:49.259Z,0
2019-01-18T03:55:29.834Z,0
2019-01-18T03:56:10.389Z,0
2019-01-18T03:56:50.937Z,0
2019-01-18T03:57:31.504Z,0
2019-01-18T03:58:12.068Z,0
2019-01-18T03:58:52.639Z,0
2019-01-18T03:59:33.206Z,0
2019-01-18T04:00:13.775Z,0
2019-01-18T04:00:54.330Z,0
2019-01-18T04:01:34.895Z,0
2019-01-18T04:02:15.451Z,0
2019-01-18T04:02:59.794Z,0
2019-01-18T04:03:40.376Z,0
2019-01-18T04:04:20.952Z,0
2019-01-18T04:05:01.509Z,0
2019-01-18T04:05:42.079Z,0
2019-01-18T04:06:22.643Z,0
2019-01-18T04:07:03.204Z,0
2019-01-18T04:07:43.762Z,0
2019-01-18T04:08:24.331Z,0
2019-01-18T04:09:04.887Z,0
2019-01-18T04:09:45.442Z,0
2019-01-18T04:10:25.998Z,0
2019-01-18T04:11:06.564Z,0
2019-01-18T04:11:47.134Z,0
2019-01-18T04:12:27.727Z,0
2019-01-18T04:13:08.292Z,0
2019-01-18T04:13:48.870Z,0
2019-01-18T04:14:29.404Z,0
2019-01-18T04:15:09.972Z,0
2019-01-18T04:15:50.513Z,0
2019-01-18T04:16:31.086Z,0
2019-01-18T04:17:11.644Z,0
2019-01-18T04:17:52.198Z,0
2019-01-18T04:18:32.770Z,0
2019-01-18T04:19:13.343Z,0
2019-01-18T04:19:53.925Z,0
2019-01-18T04:20:34.518Z,0
2019-01-18T04:21:15.057Z,0
2019-01-18T04:21:55.813Z,0
2019-01-18T04:22:36.382Z,0
2019-01-18T04:23:16.931Z,0
2019-01-18T04:23:57.516Z,0
2019-01-18T04:24:38.237Z,0
2019-01-18T04:25:18.811Z,0
2019-01-18T04:25:59.383Z,0
2019-01-18T04:26:39.942Z,0
2019-01-18T04:27:20.511Z,0
2019-01-18T04:28:01.061Z,0
2019-01-18T04:28:41.621Z,0
2019-01-18T04:29:22.178Z,0
2019-01-18T04:30:02.711Z,0
2019-01-18T04:30:43.291Z,0
2019-01-18T04:31:23.891Z,0
2019-01-18T04:32:04.474Z,0
2019-01-18T04:32:45.038Z,0
2019-01-18T04:33:25.583Z,0
2019-01-18T04:34:06.139Z,0
2019-01-18T04:34:46.706Z,0
2019-01-18T04:35:27.279Z,0
2019-01-18T04:36:07.925Z,0
2019-01-18T04:36:48.480Z,0
2019-01-18T04:37:29.042Z,0
2019-01-18T04:38:09.604Z,0
2019-01-18T04:38:50.175Z,0
2019-01-18T04:39:30.724Z,0
2019-01-18T04:40:11.273Z,0
2019-01-18T04:40:51.833Z,0
2019-01-18T04:41:32.441Z,0
2019-01-18T04:42:13.008Z,0
2019-01-18T04:42:53.572Z,0
2019-01-18T04:43:34.159Z,0
2019-01-18T04:44:14.701Z,0
2019-01-18T04:44:55.252Z,0
2019-01-18T04:45:35.815Z,0
2019-01-18T04:46:16.373Z,0
2019-01-18T04:46:56.945Z,0
2019-01-18T04:47:37.508Z,0
2019-01-18T04:48:18.067Z,0
2019-01-18T04:48:58.632Z,0
2019-01-18T04:49:39.207Z,0
2019-01-18T04:50:19.760Z,0
2019-01-18T04:51:00.321Z,0
2019-01-18T04:51:40.881Z,0
2019-01-18T04:52:21.450Z,0
2019-01-18T04:53:02.067Z,0
2019-01-18T04:53:42.629Z,0
2019-01-18T04:54:23.183Z,0
2019-01-18T04:55:03.771Z,0
2019-01-18T04:55:44.327Z,0
2019-01-18T04:56:24.876Z,0
2019-01-18T04:57:05.424Z,0
2019-01-18T04:57:46.001Z,0
2019-01-18T04:58:26.695Z,0
2019-01-18T04:59:07.158Z,0
2019-01-18T04:59:47.712Z,0
2019-01-18T05:00:28.260Z,0
2019-01-18T05:01:08.816Z,0
2019-01-18T05:01:49.373Z,0
2019-01-18T05:02:29.957Z,0
2019-01-18T05:03:10.519Z,0
2019-01-18T05:03:51.076Z,0
2019-01-18T05:04:32.061Z,0
2019-01-18T05:05:12.192Z,0
2019-01-18T05:05:52.787Z,0
2019-01-18T05:06:33.365Z,0
2019-01-18T05:07:13.920Z,0
2019-01-18T05:07:54.479Z,0
2019-01-18T05:08:35.058Z,0
2019-01-18T05:09:15.626Z,0
2019-01-18T05:09:56.190Z,0
2019-01-18T05:10:36.775Z,0
2019-01-18T05:11:17.392Z,0
2019-01-18T05:11:57.953Z,0
2019-01-18T05:12:38.526Z,0
2019-01-18T05:13:19.075Z,0
2019-01-18T05:13:59.631Z,0
2019-01-18T05:14:40.189Z,0
2019-01-18T05:15:20.740Z,0
2019-01-18T05:16:01.303Z,0
2019-01-18T05:16:41.891Z,0
2019-01-18T05:17:22.438Z,0
2019-01-18T05:18:03.004Z,0
2019-01-18T05:18:43.580Z,0
2019-01-18T05:19:24.159Z,0
2019-01-18T05:20:04.720Z,0
2019-01-18T05:20:45.274Z,0
2019-01-18T05:21:25.830Z,0
2019-01-18T05:22:06.384Z,0
2019-01-18T05:22:46.935Z,0
2019-01-18T05:23:27.504Z,0
2019-01-18T05:24:08.090Z,0
2019-01-18T05:24:49.435Z,0
2019-01-18T05:25:29.272Z,0
2019-01-18T05:26:09.924Z,0
2019-01-18T05:26:50.436Z,0
2019-01-18T05:27:31.025Z,0
2019-01-18T05:28:11.589Z,0
2019-01-18T05:28:52.169Z,0
2019-01-18T05:29:32.824Z,0
2019-01-18T05:30:13.389Z,0
2019-01-18T05:30:54.123Z,0
2019-01-18T05:31:34.992Z,0
2019-01-18T05:32:16.426Z,0
2019-01-18T05:32:58.014Z,0
2019-01-18T05:33:39.086Z,0
2019-01-18T05:34:19.902Z,0
2019-01-18T05:35:00.837Z,0
2019-01-18T05:35:41.718Z,0
2019-01-18T05:36:22.534Z,0
2019-01-18T05:37:03.337Z,0
2019-01-18T05:37:44.218Z,0
2019-01-18T05:38:25.060Z,0
2019-01-18T05:39:06.041Z,0
2019-01-18T05:39:46.648Z,0
2019-01-18T05:40:27.479Z,0
2019-01-18T05:41:08.354Z,0
2019-01-18T05:41:48.933Z,0
2019-01-18T05:42:30.902Z,0
2019-01-18T05:43:12.941Z,0
2019-01-18T05:43:53.821Z,0
2019-01-18T05:44:34.435Z,0
2019-01-18T05:45:15.057Z,0
2019-01-18T05:45:55.616Z,0
2019-01-18T05:46:36.183Z,0
2019-01-18T05:47:17.045Z,0
2019-01-18T05:47:59.715Z,0
2019-01-18T05:48:40.693Z,0
2019-01-18T05:49:21.565Z,0
2019-01-18T05:50:02.153Z,0
2019-01-18T05:50:42.735Z,0
2019-01-18T05:51:23.642Z,0
2019-01-18T05:52:04.302Z,0
2019-01-18T05:52:45.075Z,0
2019-01-18T05:53:25.973Z,0
2019-01-18T05:54:06.561Z,0
2019-01-18T05:54:47.108Z,0
2019-01-18T05:55:27.673Z,0
2019-01-18T05:56:08.224Z,0
2019-01-18T05:56:48.807Z,0
2019-01-18T05:57:29.357Z,0
2019-01-18T05:58:09.907Z,0
2019-01-18T05:58:50.456Z,0
2019-01-18T05:59:31.022Z,0
2019-01-18T06:00:11.592Z,0
2019-01-18T06:00:55.244Z,0
2019-01-18T06:01:32.858Z,0
2019-01-18T06:02:13.596Z,0
2019-01-18T06:02:54.157Z,0
2019-01-18T06:03:34.930Z,0
2019-01-18T06:04:15.538Z,0
2019-01-18T06:04:56.124Z,0
2019-01-18T06:05:36.687Z,0
2019-01-18T06:06:17.290Z,0
2019-01-18T06:06:57.845Z,0
2019-01-18T06:07:38.549Z,0
2019-01-18T06:08:19.184Z,0
2019-01-18T06:08:59.743Z,0
2019-01-18T06:09:40.319Z,0
2019-01-18T06:10:20.932Z,0
2019-01-18T06:11:01.480Z,0
2019-01-18T06:11:42.076Z,0
2019-01-18T06:12:22.703Z,0
2019-01-18T06:13:03.260Z,0
2019-01-18T06:13:43.831Z,0
2019-01-18T06:14:24.477Z,0
2019-01-18T06:15:05.075Z,0
2019-01-18T06:15:45.645Z,0
2019-01-18T06:16:26.202Z,0
2019-01-18T06:17:06.824Z,0
2019-01-18T06:17:47.410Z,0
2019-01-18T06:18:27.979Z,0
2019-01-18T06:19:08.629Z,0
2019-01-18T06:19:49.509Z,0
2019-01-18T06:20:30.182Z,0
2019-01-18T06:21:10.707Z,0
2019-01-18T06:21:51.309Z,0
2019-01-18T06:22:31.901Z,0
2019-01-18T06:23:12.469Z,0
2019-01-18T06:23:53.042Z,0
2019-01-18T06:24:33.718Z,0
2019-01-18T06:25:14.314Z,0
2019-01-18T06:25:54.817Z,0
2019-01-18T06:26:35.370Z,0
2019-01-18T06:27:15.940Z,0
2019-01-18T06:27:56.555Z,0
2019-01-18T06:28:37.271Z,0
2019-01-18T06:29:17.836Z,0
2019-01-18T06:29:58.387Z,0
2019-01-18T06:30:38.961Z,0
2019-01-18T06:31:19.593Z,0
2019-01-18T06:32:00.101Z,0
2019-01-18T06:32:40.746Z,0
2019-01-18T06:33:21.344Z,0
2019-01-18T06:34:01.881Z,0
2019-01-18T06:34:42.450Z,0
2019-01-18T06:35:23.057Z,0
2019-01-18T06:36:03.635Z,0
2019-01-18T06:36:44.268Z,0
2019-01-18T06:37:24.849Z,0
2019-01-18T06:38:05.408Z,0
2019-01-18T06:38:46.022Z,0
2019-01-18T06:39:26.613Z,0
2019-01-18T06:40:07.169Z,0
2019-01-18T06:40:47.789Z,0
2019-01-18T06:41:28.655Z,0
2019-01-18T06:42:09.203Z,0
2019-01-18T06:42:49.767Z,0
2019-01-18T06:43:30.351Z,0
2019-01-18T06:44:10.926Z,0
2019-01-18T06:44:51.559Z,0
2019-01-18T06:45:32.106Z,0
2019-01-18T06:46:12.753Z,0
2019-01-18T06:46:53.294Z,0
2019-01-18T06:47:33.853Z,0
2019-01-18T06:48:14.436Z,0
2019-01-18T06:48:55.001Z,0
2019-01-18T06:49:35.545Z,0
2019-01-18T06:50:16.181Z,0
2019-01-18T06:50:56.834Z,0
2019-01-18T06:51:37.442Z,0
2019-01-18T06:52:18.058Z,0
2019-01-18T06:52:58.634Z,0
2019-01-18T06:53:39.202Z,0
2019-01-18T06:54:19.782Z,0
2019-01-18T06:55:00.344Z,0
2019-01-18T06:55:40.907Z,0
2019-01-18T06:56:21.470Z,0
2019-01-18T06:57:02.062Z,0
2019-01-18T06:57:42.742Z,0
2019-01-18T06:58:23.411Z,0
2019-01-18T06:59:03.984Z,0
2019-01-18T06:59:44.536Z,0
2019-01-18T07:00:25.143Z,0
2019-01-18T07:01:08.523Z,0
2019-01-18T07:01:46.333Z,0
2019-01-18T07:02:26.960Z,0
2019-01-18T07:03:07.533Z,0
2019-01-18T07:03:48.120Z,0
2019-01-18T07:04:28.674Z,0
2019-01-18T07:05:09.284Z,0
2019-01-18T07:05:49.851Z,0
2019-01-18T07:06:30.422Z,0
2019-01-18T07:07:10.976Z,0
2019-01-18T07:07:51.555Z,0
2019-01-18T07:08:32.083Z,5
2019-01-18T07:09:12.687Z,5
2019-01-18T07:09:53.257Z,5
2019-01-18T07:10:33.827Z,5
2019-01-18T07:11:14.438Z,5
2019-01-18T07:11:54.982Z,5
2019-01-18T07:12:35.534Z,5
2019-01-18T07:13:16.098Z,5
2019-01-18T07:13:56.658Z,5
2019-01-18T07:14:37.235Z,5
2019-01-18T07:15:17.889Z,5
2019-01-18T07:15:58.543Z,5
2019-01-18T07:16:39.089Z,5
2019-01-18T07:17:19.644Z,5
2019-01-18T07:18:00.194Z,5
2019-01-18T07:18:40.750Z,10
2019-01-18T07:19:21.322Z,10
2019-01-18T07:20:01.863Z,10
2019-01-18T07:20:42.427Z,10
2019-01-18T07:21:22.978Z,10
2019-01-18T07:22:03.559Z,10
2019-01-18T07:22:44.174Z,10
2019-01-18T07:23:24.732Z,10
2019-01-18T07:24:05.277Z,10
2019-01-18T07:24:45.887Z,15
2019-01-18T07:25:26.478Z,15
2019-01-18T07:26:07.223Z,15
2019-01-18T07:26:47.776Z,15
2019-01-18T07:27:28.331Z,15
2019-01-18T07:28:08.897Z,15
2019-01-18T07:28:49.446Z,15
2019-01-18T07:29:30.004Z,15
2019-01-18T07:30:10.571Z,15
2019-01-18T07:30:51.117Z,15
2019-01-18T07:31:31.757Z,15
2019-01-18T07:32:12.376Z,15
2019-01-18T07:32:52.950Z,15
2019-01-18T07:33:33.486Z,20
2019-01-18T07:34:14.044Z,20
2019-01-18T07:34:54.603Z,20
2019-01-18T07:35:35.154Z,20
2019-01-18T07:36:15.851Z,20
2019-01-18T07:36:56.466Z,20
2019-01-18T07:37:37.049Z,20
2019-01-18T07:38:17.652Z,20
2019-01-18T07:39:00.518Z,20
2019-01-18T07:39:38.767Z,20
2019-01-18T07:40:19.313Z,20
2019-01-18T07:40:59.869Z,20
2019-01-18T07:41:40.465Z,20
2019-01-18T07:42:21.020Z,25
2019-01-18T07:43:01.571Z,25
2019-01-18T07:43:42.183Z,25
2019-01-18T07:44:22.724Z,25
2019-01-18T07:45:03.352Z,25
2019-01-18T07:45:43.920Z,25
2019-01-18T07:46:24.501Z,25
2019-01-18T07:47:05.080Z,25
2019-01-18T07:47:45.636Z,25
2019-01-18T07:48:26.237Z,25
2019-01-18T07:49:06.918Z,25
2019-01-18T07:49:47.457Z,25
2019-01-18T07:50:28.034Z,25
2019-01-18T07:51:08.613Z,25
2019-01-18T07:51:49.164Z,30
2019-01-18T07:52:29.867Z,30
2019-01-18T07:53:10.471Z,30
2019-01-18T07:53:51.072Z,30
2019-01-18T07:54:31.647Z,30
2019-01-18T07:55:12.464Z,30
2019-01-18T07:55:53.101Z,30
2019-01-18T07:56:33.974Z,30
2019-01-18T07:57:14.581Z,30
2019-01-18T07:57:55.138Z,30
2019-01-18T07:58:35.777Z,30
2019-01-18T07:59:16.404Z,30
2019-01-18T07:59:56.969Z,30
2019-01-18T08:00:37.541Z,30
2019-01-18T08:01:21.964Z,30
2019-01-18T08:01:58.688Z,30
2019-01-18T08:02:39.243Z,35
2019-01-18T08:03:19.824Z,35
2019-01-18T08:04:00.518Z,35
2019-01-18T08:04:41.068Z,35
2019-01-18T08:05:21.765Z,40
2019-01-18T08:06:02.406Z,45
2019-01-18T08:06:43.078Z,50
2019-01-18T08:07:23.634Z,55
2019-01-18T08:08:04.174Z,50
2019-01-18T08:08:44.780Z,45
2019-01-18T08:09:25.336Z,40
2019-01-18T08:10:05.983Z,35
2019-01-18T08:10:46.567Z,35
2019-01-18T08:11:27.118Z,35
2019-01-18T08:12:07.682Z,35
2019-01-18T08:12:48.263Z,40
2019-01-18T08:13:29.079Z,40
2019-01-18T08:14:09.607Z,40
2019-01-18T08:14:50.222Z,40
2019-01-18T08:15:30.790Z,40
2019-01-18T08:16:11.352Z,40
2019-01-18T08:16:51.930Z,40
2019-01-18T08:17:32.538Z,40
2019-01-18T08:18:13.097Z,40
2019-01-18T08:18:53.765Z,40
2019-01-18T08:19:34.366Z,40
2019-01-18T08:20:14.998Z,40
2019-01-18T08:20:55.570Z,40
2019-01-18T08:21:36.091Z,40
2019-01-18T08:22:16.732Z,40
2019-01-18T08:22:57.283Z,45
2019-01-18T08:23:37.837Z,45
2019-01-18T08:24:18.397Z,45
2019-01-18T08:24:58.946Z,45
2019-01-18T08:25:39.547Z,45
2019-01-18T08:26:20.087Z,45
2019-01-18T08:27:00.650Z,45
2019-01-18T08:27:41.231Z,45
2019-01-18T08:28:21.794Z,45
2019-01-18T08:29:02.354Z,50
2019-01-18T08:29:42.888Z,50
2019-01-18T08:30:23.538Z,50
2019-01-18T08:31:04.098Z,50
2019-01-18T08:31:44.669Z,50
2019-01-18T08:32:25.283Z,50
2019-01-18T08:33:05.892Z,50
2019-01-18T08:33:46.485Z,50
2019-01-18T08:34:27.053Z,50
2019-01-18T08:35:07.607Z,50
2019-01-18T08:35:48.184Z,50
2019-01-18T08:36:28.748Z,50
2019-01-18T08:37:09.308Z,50
2019-01-18T08:37:50.000Z,50
2019-01-18T08:38:30.681Z,50
2019-01-18T08:39:11.345Z,50
2019-01-18T08:39:51.979Z,50
2019-01-18T08:40:32.588Z,50
2019-01-18T08:41:13.147Z,50
2019-01-18T08:41:53.740Z,50
2019-01-18T08:42:34.293Z,50
2019-01-18T08:43:15.172Z,50
2019-01-18T08:43:55.460Z,55
2019-01-18T08:44:36.064Z,55
2019-01-18T08:45:16.673Z,65
2019-01-18T08:45:57.241Z,130
2019-01-18T08:46:37.802Z,200
2019-01-18T08:47:18.388Z,265
2019-01-18T08:47:58.981Z,325
2019-01-18T08:48:39.545Z,370
2019-01-18T08:49:20.133Z,435
2019-01-18T08:50:00.752Z,410
2019-01-18T08:50:41.329Z,415
2019-01-18T08:51:21.899Z,415
2019-01-18T08:52:02.470Z,445
2019-01-18T08:52:43.023Z,475
2019-01-18T08:53:23.626Z,480
2019-01-18T08:54:04.263Z,460
2019-01-18T08:54:44.854Z,340
2019-01-18T08:55:25.417Z,265
2019-01-18T08:56:06.006Z,235
2019-01-18T08:56:46.595Z,280
2019-01-18T08:57:27.256Z,325
2019-01-18T08:58:07.854Z,370
2019-01-18T08:58:48.400Z,370
2019-01-18T08:59:29.098Z,355
2019-01-18T09:00:09.676Z,320
2019-01-18T09:00:50.251Z,255
2019-01-18T09:01:35.610Z,195
2019-01-18T09:02:11.374Z,255
2019-01-18T09:02:51.960Z,385
2019-01-18T09:03:32.516Z,550
2019-01-18T09:04:13.069Z,625
2019-01-18T09:04:53.678Z,670
2019-01-18T09:05:34.235Z,665
2019-01-18T09:06:14.797Z,695
2019-01-18T09:06:55.349Z,740
2019-01-18T09:07:35.928Z,820
2019-01-18T09:08:16.487Z,915
2019-01-18T09:08:57.031Z,925
2019-01-18T09:09:37.615Z,925
2019-01-18T09:10:18.173Z,960
2019-01-18T09:10:58.736Z,990
2019-01-18T09:11:39.299Z,990
2019-01-18T09:12:19.855Z,925
2019-01-18T09:13:00.434Z,840
2019-01-18T09:13:41.015Z,680
2019-01-18T09:14:21.585Z,565
2019-01-18T09:15:02.165Z,565
2019-01-18T09:15:42.712Z,585
2019-01-18T09:16:23.288Z,485
2019-01-18T09:17:03.843Z,295
2019-01-18T09:17:44.416Z,215
2019-01-18T09:18:25.016Z,270
2019-01-18T09:19:05.579Z,400
2019-01-18T09:19:46.145Z,585
2019-01-18T09:20:26.720Z,675
2019-01-18T09:21:07.276Z,670
2019-01-18T09:21:47.848Z,680
2019-01-18T09:22:28.425Z,745
2019-01-18T09:23:09.028Z,780
2019-01-18T09:23:49.796Z,825
2019-01-18T09:24:30.468Z,865
2019-01-18T09:25:11.016Z,900
2019-01-18T09:25:51.579Z,875
2019-01-18T09:26:32.178Z,840
2019-01-18T09:27:12.737Z,850
2019-01-18T09:27:53.322Z,870
2019-01-18T09:28:33.895Z,835
2019-01-18T09:29:14.462Z,840
2019-01-18T09:29:55.151Z,735
2019-01-18T09:30:35.724Z,685
2019-01-18T09:31:16.298Z,695
2019-01-18T09:31:56.890Z,680
2019-01-18T09:32:37.461Z,620
2019-01-18T09:33:18.022Z,700
2019-01-18T09:33:58.593Z,785
2019-01-18T09:34:39.160Z,880
2019-01-18T09:35:19.731Z,810
2019-01-18T09:36:00.305Z,815
2019-01-18T09:36:40.871Z,820
2019-01-18T09:37:21.480Z,720
2019-01-18T09:38:02.124Z,580
2019-01-18T09:38:42.878Z,545
2019-01-18T09:39:23.452Z,605
2019-01-18T09:40:04.055Z,630
2019-01-18T09:40:44.646Z,720
2019-01-18T09:41:25.458Z,905
2019-01-18T09:42:06.036Z,890
2019-01-18T09:42:46.585Z,840
2019-01-18T09:43:27.162Z,795
2019-01-18T09:44:07.735Z,760
2019-01-18T09:44:48.366Z,760
2019-01-18T09:45:29.002Z,720
2019-01-18T09:46:09.556Z,730
2019-01-18T09:46:50.126Z,700
2019-01-18T09:47:30.690Z,670
2019-01-18T09:48:11.257Z,670
2019-01-18T09:48:51.821Z,650
2019-01-18T09:49:32.366Z,640
2019-01-18T09:50:12.958Z,575
2019-01-18T09:50:53.516Z,535
2019-01-18T09:51:34.053Z,500
2019-01-18T09:52:14.680Z,570